sensor_id;sensor_type;location;lat;lon;timestamp;P1;durP1;ratioP1;P2;durP2;ratioP2
37239;SDS011;23130;48.760;9.178;2023-02-24T00:00:08;38.03;;;21.33;;
37239;SDS011;23130;48.760;9.178;2023-02-24T00:02:56;42.00;;;23.85;;
37239;SDS011;23130;48.760;9.178;2023-02-24T00:05:23;42.63;;;23.45;;
37239;SDS011;23130;48.760;9.178;2023-02-24T00:07:48;42.17;;;23.05;;
37239;SDS011;23130;48.760;9.178;2023-02-24T00:10:14;37.45;;;19.38;;
37239;SDS011;23130;48.760;9.178;2023-02-24T00:12:45;38.97;;;22.75;;
37239;SDS011;23130;48.760;9.178;2023-02-24T00:15:14;45.42;;;23.50;;
37239;SDS011;23130;48.760;9.178;2023-02-24T00:17:40;41.75;;;22.30;;
37239;SDS011;23130;48.760;9.178;2023-02-24T00:20:09;45.53;;;23.92;;
37239;SDS011;23130;48.760;9.178;2023-02-24T00:22:36;43.42;;;22.63;;
37239;SDS011;23130;48.760;9.178;2023-02-24T00:25:03;38.20;;;23.70;;
37239;SDS011;23130;48.760;9.178;2023-02-24T00:27:29;36.42;;;19.92;;
37239;SDS011;23130;48.760;9.178;2023-02-24T00:29:56;44.10;;;24.38;;
37239;SDS011;23130;48.760;9.178;2023-02-24T00:32:21;41.08;;;21.88;;
37239;SDS011;23130;48.760;9.178;2023-02-24T00:34:47;36.42;;;21.13;;
37239;SDS011;23130;48.760;9.178;2023-02-24T00:37:12;38.78;;;21.80;;
37239;SDS011;23130;48.760;9.178;2023-02-24T00:39:39;39.35;;;21.60;;
37239;SDS011;23130;48.760;9.178;2023-02-24T00:42:05;36.25;;;20.60;;
37239;SDS011;23130;48.760;9.178;2023-02-24T00:46:58;34.97;;;20.95;;
37239;SDS011;23130;48.760;9.178;2023-02-24T00:49:28;48.88;;;24.80;;
37239;SDS011;23130;48.760;9.178;2023-02-24T00:51:54;41.40;;;22.08;;
37239;SDS011;23130;48.760;9.178;2023-02-24T00:54:20;40.13;;;21.50;;
37239;SDS011;23130;48.760;9.178;2023-02-24T00:56:49;37.45;;;20.58;;
37239;SDS011;23130;48.760;9.178;2023-02-24T00:59:15;34.58;;;19.80;;
37239;SDS011;23130;48.760;9.178;2023-02-24T01:01:46;36.42;;;21.17;;
37239;SDS011;23130;48.760;9.178;2023-02-24T01:04:13;38.42;;;21.85;;
37239;SDS011;23130;48.760;9.178;2023-02-24T01:06:41;39.38;;;21.73;;
37239;SDS011;23130;48.760;9.178;2023-02-24T01:09:10;39.35;;;20.75;;
37239;SDS011;23130;48.760;9.178;2023-02-24T01:11:37;37.20;;;20.55;;
37239;SDS011;23130;48.760;9.178;2023-02-24T01:14:26;42.08;;;24.48;;
37239;SDS011;23130;48.760;9.178;2023-02-24T01:16:54;39.75;;;23.60;;
37239;SDS011;23130;48.760;9.178;2023-02-24T01:19:24;35.97;;;21.73;;
37239;SDS011;23130;48.760;9.178;2023-02-24T01:21:56;35.90;;;22.55;;
37239;SDS011;23130;48.760;9.178;2023-02-24T01:24:23;39.63;;;22.58;;
37239;SDS011;23130;48.760;9.178;2023-02-24T01:26:49;44.03;;;24.15;;
37239;SDS011;23130;48.760;9.178;2023-02-24T01:29:15;37.28;;;21.50;;
37239;SDS011;23130;48.760;9.178;2023-02-24T01:31:41;41.67;;;22.95;;
37239;SDS011;23130;48.760;9.178;2023-02-24T01:34:09;41.45;;;22.65;;
37239;SDS011;23130;48.760;9.178;2023-02-24T01:36:37;46.03;;;25.10;;
37239;SDS011;23130;48.760;9.178;2023-02-24T01:39:04;42.20;;;23.73;;
37239;SDS011;23130;48.760;9.178;2023-02-24T01:41:35;37.70;;;21.75;;
37239;SDS011;23130;48.760;9.178;2023-02-24T01:46:35;36.58;;;23.00;;
37239;SDS011;23130;48.760;9.178;2023-02-24T01:51:41;38.47;;;22.73;;
37239;SDS011;23130;48.760;9.178;2023-02-24T01:54:12;38.78;;;22.48;;
37239;SDS011;23130;48.760;9.178;2023-02-24T01:56:41;35.05;;;21.67;;
37239;SDS011;23130;48.760;9.178;2023-02-24T01:59:08;36.03;;;21.05;;
37239;SDS011;23130;48.760;9.178;2023-02-24T02:01:35;33.58;;;21.13;;
37239;SDS011;23130;48.760;9.178;2023-02-24T02:04:14;43.75;;;23.20;;
37239;SDS011;23130;48.760;9.178;2023-02-24T02:06:44;43.13;;;22.05;;
37239;SDS011;23130;48.760;9.178;2023-02-24T02:09:11;36.60;;;20.13;;
37239;SDS011;23130;48.760;9.178;2023-02-24T02:11:39;40.17;;;22.65;;
37239;SDS011;23130;48.760;9.178;2023-02-24T02:14:05;36.85;;;21.42;;
37239;SDS011;23130;48.760;9.178;2023-02-24T02:16:37;40.30;;;23.70;;
37239;SDS011;23130;48.760;9.178;2023-02-24T02:42:58;39.53;;;23.02;;
37239;SDS011;23130;48.760;9.178;2023-02-24T02:45:45;44.83;;;22.95;;
37239;SDS011;23130;48.760;9.178;2023-02-24T02:51:05;40.80;;;23.27;;
37239;SDS011;23130;48.760;9.178;2023-02-24T02:53:42;44.42;;;23.70;;
37239;SDS011;23130;48.760;9.178;2023-02-24T02:56:18;34.20;;;21.63;;
37239;SDS011;23130;48.760;9.178;2023-02-24T02:58:52;35.28;;;22.50;;
37239;SDS011;23130;48.760;9.178;2023-02-24T03:01:21;36.92;;;22.25;;
37239;SDS011;23130;48.760;9.178;2023-02-24T03:03:53;42.83;;;23.13;;
37239;SDS011;23130;48.760;9.178;2023-02-24T03:06:29;37.83;;;22.02;;
37239;SDS011;23130;48.760;9.178;2023-02-24T03:08:59;40.00;;;22.98;;
37239;SDS011;23130;48.760;9.178;2023-02-24T03:11:42;47.33;;;22.88;;
37239;SDS011;23130;48.760;9.178;2023-02-24T03:14:12;42.33;;;23.60;;
37239;SDS011;23130;48.760;9.178;2023-02-24T03:16:42;38.53;;;23.60;;
37239;SDS011;23130;48.760;9.178;2023-02-24T03:19:10;45.80;;;23.55;;
37239;SDS011;23130;48.760;9.178;2023-02-24T03:21:39;43.20;;;23.83;;
37239;SDS011;23130;48.760;9.178;2023-02-24T03:24:10;42.83;;;24.67;;
37239;SDS011;23130;48.760;9.178;2023-02-24T03:26:41;46.53;;;24.08;;
37239;SDS011;23130;48.760;9.178;2023-02-24T03:31:51;42.03;;;22.77;;
37239;SDS011;23130;48.760;9.178;2023-02-24T03:37:15;40.40;;;22.38;;
37239;SDS011;23130;48.760;9.178;2023-02-24T03:39:49;47.20;;;27.42;;
37239;SDS011;23130;48.760;9.178;2023-02-24T03:42:17;43.03;;;24.95;;
37239;SDS011;23130;48.760;9.178;2023-02-24T03:44:44;46.20;;;24.67;;
37239;SDS011;23130;48.760;9.178;2023-02-24T03:47:10;46.28;;;26.23;;
37239;SDS011;23130;48.760;9.178;2023-02-24T03:49:37;44.15;;;24.42;;
37239;SDS011;23130;48.760;9.178;2023-02-24T03:52:08;46.40;;;25.80;;
37239;SDS011;23130;48.760;9.178;2023-02-24T03:57:43;49.90;;;25.50;;
37239;SDS011;23130;48.760;9.178;2023-02-24T04:00:30;47.33;;;24.70;;
37239;SDS011;23130;48.760;9.178;2023-02-24T04:05:48;43.33;;;23.65;;
37239;SDS011;23130;48.760;9.178;2023-02-24T04:08:23;47.45;;;24.42;;
37239;SDS011;23130;48.760;9.178;2023-02-24T04:16:26;45.97;;;23.95;;
37239;SDS011;23130;48.760;9.178;2023-02-24T04:19:01;40.80;;;23.67;;
37239;SDS011;23130;48.760;9.178;2023-02-24T04:21:29;41.53;;;22.95;;
37239;SDS011;23130;48.760;9.178;2023-02-24T04:23:56;41.75;;;22.02;;
37239;SDS011;23130;48.760;9.178;2023-02-24T04:26:24;43.50;;;23.98;;
37239;SDS011;23130;48.760;9.178;2023-02-24T04:28:51;50.78;;;26.83;;
37239;SDS011;23130;48.760;9.178;2023-02-24T04:31:19;51.47;;;25.77;;
37239;SDS011;23130;48.760;9.178;2023-02-24T04:33:46;55.03;;;29.13;;
37239;SDS011;23130;48.760;9.178;2023-02-24T04:36:15;48.45;;;26.75;;
37239;SDS011;23130;48.760;9.178;2023-02-24T04:38:41;46.35;;;27.25;;
37239;SDS011;23130;48.760;9.178;2023-02-24T04:41:07;59.97;;;29.70;;
37239;SDS011;23130;48.760;9.178;2023-02-24T04:43:32;53.20;;;29.25;;
37239;SDS011;23130;48.760;9.178;2023-02-24T04:45:59;61.95;;;30.63;;
37239;SDS011;23130;48.760;9.178;2023-02-24T04:48:31;59.05;;;30.92;;
37239;SDS011;23130;48.760;9.178;2023-02-24T04:50:58;66.65;;;29.73;;
37239;SDS011;23130;48.760;9.178;2023-02-24T04:53:26;59.85;;;28.95;;
37239;SDS011;23130;48.760;9.178;2023-02-24T04:55:52;55.42;;;27.50;;
37239;SDS011;23130;48.760;9.178;2023-02-24T04:58:21;63.83;;;29.15;;
37239;SDS011;23130;48.760;9.178;2023-02-24T05:00:51;62.03;;;30.08;;
37239;SDS011;23130;48.760;9.178;2023-02-24T05:03:18;62.78;;;30.13;;
37239;SDS011;23130;48.760;9.178;2023-02-24T05:05:52;55.72;;;28.58;;
37239;SDS011;23130;48.760;9.178;2023-02-24T05:08:21;59.05;;;30.40;;
37239;SDS011;23130;48.760;9.178;2023-02-24T05:10:47;69.13;;;30.38;;
37239;SDS011;23130;48.760;9.178;2023-02-24T05:13:21;65.70;;;31.85;;
37239;SDS011;23130;48.760;9.178;2023-02-24T05:15:52;60.15;;;30.42;;
37239;SDS011;23130;48.760;9.178;2023-02-24T05:18:30;65.00;;;30.10;;
37239;SDS011;23130;48.760;9.178;2023-02-24T05:21:02;67.03;;;30.30;;
37239;SDS011;23130;48.760;9.178;2023-02-24T05:23:53;65.50;;;30.83;;
37239;SDS011;23130;48.760;9.178;2023-02-24T05:26:19;64.75;;;30.85;;
37239;SDS011;23130;48.760;9.178;2023-02-24T05:28:49;67.88;;;30.48;;
37239;SDS011;23130;48.760;9.178;2023-02-24T05:31:18;71.82;;;31.48;;
37239;SDS011;23130;48.760;9.178;2023-02-24T05:33:47;69.35;;;31.88;;
37239;SDS011;23130;48.760;9.178;2023-02-24T05:36:15;58.92;;;29.08;;
37239;SDS011;23130;48.760;9.178;2023-02-24T05:38:45;60.63;;;29.65;;
37239;SDS011;23130;48.760;9.178;2023-02-24T05:41:13;65.20;;;30.63;;
37239;SDS011;23130;48.760;9.178;2023-02-24T05:43:43;66.75;;;29.83;;
37239;SDS011;23130;48.760;9.178;2023-02-24T05:46:17;70.95;;;31.15;;
37239;SDS011;23130;48.760;9.178;2023-02-24T05:48:52;58.38;;;28.98;;
37239;SDS011;23130;48.760;9.178;2023-02-24T05:51:21;67.07;;;30.15;;
37239;SDS011;23130;48.760;9.178;2023-02-24T05:53:48;63.97;;;29.20;;
37239;SDS011;23130;48.760;9.178;2023-02-24T05:56:19;66.50;;;29.23;;
37239;SDS011;23130;48.760;9.178;2023-02-24T05:58:46;62.83;;;28.55;;
37239;SDS011;23130;48.760;9.178;2023-02-24T06:01:14;58.67;;;27.13;;
37239;SDS011;23130;48.760;9.178;2023-02-24T06:03:43;69.97;;;29.08;;
37239;SDS011;23130;48.760;9.178;2023-02-24T06:06:16;68.95;;;29.92;;
37239;SDS011;23130;48.760;9.178;2023-02-24T06:08:42;56.95;;;25.63;;
37239;SDS011;23130;48.760;9.178;2023-02-24T06:11:14;59.03;;;29.23;;
37239;SDS011;23130;48.760;9.178;2023-02-24T06:13:44;67.68;;;30.13;;
37239;SDS011;23130;48.760;9.178;2023-02-24T06:16:12;66.15;;;29.55;;
37239;SDS011;23130;48.760;9.178;2023-02-24T06:18:39;66.70;;;30.17;;
37239;SDS011;23130;48.760;9.178;2023-02-24T06:21:05;67.20;;;30.05;;
37239;SDS011;23130;48.760;9.178;2023-02-24T06:23:36;67.78;;;29.25;;
37239;SDS011;23130;48.760;9.178;2023-02-24T06:26:03;63.95;;;29.85;;
37239;SDS011;23130;48.760;9.178;2023-02-24T06:28:29;58.35;;;27.52;;
37239;SDS011;23130;48.760;9.178;2023-02-24T06:30:57;68.00;;;30.55;;
37239;SDS011;23130;48.760;9.178;2023-02-24T06:33:26;69.00;;;31.83;;
37239;SDS011;23130;48.760;9.178;2023-02-24T06:35:52;62.33;;;29.50;;
37239;SDS011;23130;48.760;9.178;2023-02-24T06:38:17;59.17;;;28.63;;
37239;SDS011;23130;48.760;9.178;2023-02-24T06:40:43;66.32;;;30.73;;
37239;SDS011;23130;48.760;9.178;2023-02-24T06:43:11;68.90;;;30.52;;
37239;SDS011;23130;48.760;9.178;2023-02-24T06:45:36;69.63;;;31.83;;
37239;SDS011;23130;48.760;9.178;2023-02-24T06:48:02;63.22;;;29.85;;
37239;SDS011;23130;48.760;9.178;2023-02-24T06:50:28;68.53;;;30.75;;
37239;SDS011;23130;48.760;9.178;2023-02-24T06:52:54;64.05;;;31.63;;
37239;SDS011;23130;48.760;9.178;2023-02-24T06:55:24;69.93;;;29.73;;
37239;SDS011;23130;48.760;9.178;2023-02-24T06:57:53;66.25;;;30.83;;
37239;SDS011;23130;48.760;9.178;2023-02-24T07:00:22;56.67;;;27.67;;
37239;SDS011;23130;48.760;9.178;2023-02-24T07:03:01;70.53;;;31.63;;
37239;SDS011;23130;48.760;9.178;2023-02-24T07:05:39;76.25;;;33.58;;
37239;SDS011;23130;48.760;9.178;2023-02-24T07:08:29;68.80;;;33.47;;
37239;SDS011;23130;48.760;9.178;2023-02-24T07:10:57;72.68;;;29.80;;
37239;SDS011;23130;48.760;9.178;2023-02-24T07:13:24;62.63;;;29.90;;
37239;SDS011;23130;48.760;9.178;2023-02-24T07:15:52;66.95;;;29.70;;
37239;SDS011;23130;48.760;9.178;2023-02-24T07:18:19;67.57;;;29.95;;
37239;SDS011;23130;48.760;9.178;2023-02-24T07:20:44;68.30;;;30.73;;
37239;SDS011;23130;48.760;9.178;2023-02-24T07:23:11;66.30;;;30.45;;
37239;SDS011;23130;48.760;9.178;2023-02-24T07:25:39;64.80;;;29.25;;
37239;SDS011;23130;48.760;9.178;2023-02-24T07:28:07;63.08;;;30.83;;
37239;SDS011;23130;48.760;9.178;2023-02-24T07:30:33;67.35;;;30.75;;
37239;SDS011;23130;48.760;9.178;2023-02-24T07:33:00;70.68;;;32.50;;
37239;SDS011;23130;48.760;9.178;2023-02-24T07:35:27;71.82;;;32.13;;
37239;SDS011;23130;48.760;9.178;2023-02-24T07:37:53;75.68;;;32.88;;
37239;SDS011;23130;48.760;9.178;2023-02-24T07:40:20;71.03;;;33.47;;
37239;SDS011;23130;48.760;9.178;2023-02-24T07:42:48;69.68;;;32.88;;
37239;SDS011;23130;48.760;9.178;2023-02-24T07:45:18;83.47;;;33.75;;
37239;SDS011;23130;48.760;9.178;2023-02-24T07:47:43;76.55;;;34.05;;
37239;SDS011;23130;48.760;9.178;2023-02-24T07:50:09;73.95;;;34.75;;
37239;SDS011;23130;48.760;9.178;2023-02-24T07:52:41;75.03;;;32.40;;
37239;SDS011;23130;48.760;9.178;2023-02-24T07:55:07;73.70;;;32.92;;
37239;SDS011;23130;48.760;9.178;2023-02-24T07:57:33;76.43;;;32.45;;
37239;SDS011;23130;48.760;9.178;2023-02-24T08:00:02;78.80;;;34.00;;
37239;SDS011;23130;48.760;9.178;2023-02-24T08:02:46;79.97;;;33.05;;
37239;SDS011;23130;48.760;9.178;2023-02-24T08:05:14;73.82;;;32.78;;
37239;SDS011;23130;48.760;9.178;2023-02-24T08:07:42;70.68;;;31.13;;
37239;SDS011;23130;48.760;9.178;2023-02-24T08:10:14;68.75;;;28.95;;
37239;SDS011;23130;48.760;9.178;2023-02-24T08:12:52;68.35;;;30.95;;
37239;SDS011;23130;48.760;9.178;2023-02-24T08:15:23;76.57;;;32.33;;
37239;SDS011;23130;48.760;9.178;2023-02-24T08:17:54;60.58;;;30.40;;
37239;SDS011;23130;48.760;9.178;2023-02-24T08:20:25;62.53;;;29.67;;
37239;SDS011;23130;48.760;9.178;2023-02-24T08:22:59;63.53;;;28.58;;
37239;SDS011;23130;48.760;9.178;2023-02-24T08:25:26;59.42;;;29.40;;
37239;SDS011;23130;48.760;9.178;2023-02-24T08:28:00;69.28;;;31.55;;
37239;SDS011;23130;48.760;9.178;2023-02-24T08:30:30;64.90;;;32.03;;
37239;SDS011;23130;48.760;9.178;2023-02-24T08:33:02;57.28;;;27.55;;
37239;SDS011;23130;48.760;9.178;2023-02-24T08:35:29;60.08;;;27.23;;
37239;SDS011;23130;48.760;9.178;2023-02-24T08:38:21;49.25;;;26.25;;
37239;SDS011;23130;48.760;9.178;2023-02-24T08:40:48;46.90;;;24.65;;
37239;SDS011;23130;48.760;9.178;2023-02-24T08:43:17;43.47;;;22.63;;
37239;SDS011;23130;48.760;9.178;2023-02-24T08:45:55;46.90;;;21.45;;
37239;SDS011;23130;48.760;9.178;2023-02-24T08:48:24;43.70;;;22.05;;
37239;SDS011;23130;48.760;9.178;2023-02-24T08:50:57;41.67;;;20.20;;
37239;SDS011;23130;48.760;9.178;2023-02-24T08:53:25;39.05;;;20.48;;
37239;SDS011;23130;48.760;9.178;2023-02-24T08:55:55;33.80;;;18.50;;
37239;SDS011;23130;48.760;9.178;2023-02-24T08:58:22;34.92;;;18.23;;
37239;SDS011;23130;48.760;9.178;2023-02-24T09:00:54;33.65;;;18.85;;
37239;SDS011;23130;48.760;9.178;2023-02-24T09:03:25;32.05;;;17.98;;
37239;SDS011;23130;48.760;9.178;2023-02-24T09:06:04;31.63;;;17.55;;
37239;SDS011;23130;48.760;9.178;2023-02-24T09:08:36;26.23;;;16.75;;
37239;SDS011;23130;48.760;9.178;2023-02-24T09:11:05;26.63;;;15.48;;
37239;SDS011;23130;48.760;9.178;2023-02-24T09:13:33;30.58;;;17.00;;
37239;SDS011;23130;48.760;9.178;2023-02-24T09:16:00;29.30;;;16.35;;
37239;SDS011;23130;48.760;9.178;2023-02-24T09:18:27;31.08;;;16.33;;
37239;SDS011;23130;48.760;9.178;2023-02-24T09:21:06;30.08;;;14.07;;
37239;SDS011;23130;48.760;9.178;2023-02-24T09:23:55;27.70;;;14.52;;
37239;SDS011;23130;48.760;9.178;2023-02-24T09:26:21;28.48;;;15.02;;
37239;SDS011;23130;48.760;9.178;2023-02-24T09:28:47;27.48;;;14.82;;
37239;SDS011;23130;48.760;9.178;2023-02-24T09:31:13;25.05;;;14.45;;
37239;SDS011;23130;48.760;9.178;2023-02-24T09:33:41;27.08;;;13.98;;
37239;SDS011;23130;48.760;9.178;2023-02-24T09:36:15;26.25;;;14.02;;
37239;SDS011;23130;48.760;9.178;2023-02-24T09:38:52;24.63;;;13.15;;
37239;SDS011;23130;48.760;9.178;2023-02-24T09:44:02;19.95;;;9.75;;
37239;SDS011;23130;48.760;9.178;2023-02-24T09:46:42;21.73;;;11.15;;
37239;SDS011;23130;48.760;9.178;2023-02-24T09:49:21;24.08;;;9.82;;
37239;SDS011;23130;48.760;9.178;2023-02-24T09:52:10;22.20;;;9.70;;
37239;SDS011;23130;48.760;9.178;2023-02-24T09:54:41;20.92;;;8.98;;
37239;SDS011;23130;48.760;9.178;2023-02-24T09:57:45;21.52;;;9.50;;
37239;SDS011;23130;48.760;9.178;2023-02-24T10:00:33;13.57;;;7.55;;
37239;SDS011;23130;48.760;9.178;2023-02-24T10:03:12;15.95;;;7.75;;
37239;SDS011;23130;48.760;9.178;2023-02-24T10:06:17;14.00;;;7.60;;
37239;SDS011;23130;48.760;9.178;2023-02-24T10:09:09;21.88;;;8.35;;
37239;SDS011;23130;48.760;9.178;2023-02-24T10:11:46;21.10;;;8.30;;
37239;SDS011;23130;48.760;9.178;2023-02-24T10:17:07;14.57;;;7.35;;
37239;SDS011;23130;48.760;9.178;2023-02-24T10:20:35;17.35;;;8.32;;
37239;SDS011;23130;48.760;9.178;2023-02-24T10:22:52;15.25;;;6.80;;
37239;SDS011;23130;48.760;9.178;2023-02-24T10:25:38;18.98;;;7.10;;
37239;SDS011;23130;48.760;9.178;2023-02-24T10:33:48;25.58;;;14.35;;
37239;SDS011;23130;48.760;9.178;2023-02-24T10:36:20;27.88;;;13.70;;
37239;SDS011;23130;48.760;9.178;2023-02-24T10:38:59;27.60;;;13.90;;
37239;SDS011;23130;48.760;9.178;2023-02-24T10:41:47;25.15;;;12.98;;
37239;SDS011;23130;48.760;9.178;2023-02-24T10:44:23;27.52;;;13.38;;
37239;SDS011;23130;48.760;9.178;2023-02-24T10:47:03;25.75;;;12.35;;
37239;SDS011;23130;48.760;9.178;2023-02-24T10:49:40;24.02;;;12.00;;
37239;SDS011;23130;48.760;9.178;2023-02-24T10:52:28;25.75;;;12.80;;
37239;SDS011;23130;48.760;9.178;2023-02-24T10:55:28;28.08;;;11.93;;
37239;SDS011;23130;48.760;9.178;2023-02-24T10:58:10;23.85;;;12.15;;
37239;SDS011;23130;48.760;9.178;2023-02-24T11:00:44;29.38;;;12.30;;
37239;SDS011;23130;48.760;9.178;2023-02-24T11:03:30;27.13;;;10.85;;
37239;SDS011;23130;48.760;9.178;2023-02-24T11:06:23;24.20;;;12.35;;
37239;SDS011;23130;48.760;9.178;2023-02-24T11:09:18;27.67;;;12.50;;
37239;SDS011;23130;48.760;9.178;2023-02-24T11:11:51;23.95;;;11.80;;
37239;SDS011;23130;48.760;9.178;2023-02-24T11:14:53;30.38;;;15.48;;
37239;SDS011;23130;48.760;9.178;2023-02-24T11:17:44;33.70;;;16.13;;
37239;SDS011;23130;48.760;9.178;2023-02-24T11:20:40;37.00;;;16.33;;
37239;SDS011;23130;48.760;9.178;2023-02-24T11:23:11;43.40;;;18.00;;
37239;SDS011;23130;48.760;9.178;2023-02-24T11:25:40;40.42;;;18.88;;
37239;SDS011;23130;48.760;9.178;2023-02-24T11:28:19;40.33;;;17.75;;
37239;SDS011;23130;48.760;9.178;2023-02-24T11:30:51;41.40;;;18.35;;
37239;SDS011;23130;48.760;9.178;2023-02-24T11:33:52;35.10;;;17.85;;
37239;SDS011;23130;48.760;9.178;2023-02-24T11:41:41;35.08;;;17.23;;
37239;SDS011;23130;48.760;9.178;2023-02-24T11:44:15;40.55;;;19.00;;
37239;SDS011;23130;48.760;9.178;2023-02-24T11:47:12;36.57;;;17.13;;
37239;SDS011;23130;48.760;9.178;2023-02-24T11:49:52;36.22;;;16.38;;
37239;SDS011;23130;48.760;9.178;2023-02-24T11:52:30;31.88;;;14.02;;
37239;SDS011;23130;48.760;9.178;2023-02-24T11:54:59;31.27;;;12.02;;
37239;SDS011;23130;48.760;9.178;2023-02-24T12:03:07;31.10;;;14.10;;
37239;SDS011;23130;48.760;9.178;2023-02-24T12:05:41;25.50;;;11.77;;
37239;SDS011;23130;48.760;9.178;2023-02-24T12:08:18;27.27;;;12.23;;
37239;SDS011;23130;48.760;9.178;2023-02-24T12:10:57;24.50;;;11.55;;
37239;SDS011;23130;48.760;9.178;2023-02-24T12:13:53;23.52;;;10.55;;
37239;SDS011;23130;48.760;9.178;2023-02-24T12:16:30;22.00;;;10.95;;
37239;SDS011;23130;48.760;9.178;2023-02-24T12:19:16;34.05;;;12.02;;
37239;SDS011;23130;48.760;9.178;2023-02-24T12:21:48;29.90;;;13.70;;
37239;SDS011;23130;48.760;9.178;2023-02-24T12:24:17;26.25;;;12.85;;
37239;SDS011;23130;48.760;9.178;2023-02-24T12:40:44;19.45;;;8.85;;
37239;SDS011;23130;48.760;9.178;2023-02-24T12:43:24;18.05;;;7.93;;
37239;SDS011;23130;48.760;9.178;2023-02-24T12:49:11;22.60;;;9.23;;
37239;SDS011;23130;48.760;9.178;2023-02-24T12:52:04;18.58;;;7.70;;
37239;SDS011;23130;48.760;9.178;2023-02-24T13:00:08;17.92;;;7.15;;
37239;SDS011;23130;48.760;9.178;2023-02-24T13:05:21;16.88;;;6.75;;
37239;SDS011;23130;48.760;9.178;2023-02-24T13:08:14;18.17;;;6.72;;
37239;SDS011;23130;48.760;9.178;2023-02-24T13:13:28;15.93;;;6.53;;
37239;SDS011;23130;48.760;9.178;2023-02-24T13:15:57;18.55;;;6.50;;
37239;SDS011;23130;48.760;9.178;2023-02-24T13:23:40;13.23;;;5.85;;
37239;SDS011;23130;48.760;9.178;2023-02-24T13:26:07;16.73;;;5.43;;
37239;SDS011;23130;48.760;9.178;2023-02-24T13:28:34;18.70;;;7.35;;
37239;SDS011;23130;48.760;9.178;2023-02-24T13:31:03;21.02;;;7.20;;
37239;SDS011;23130;48.760;9.178;2023-02-24T13:33:35;16.63;;;6.15;;
37239;SDS011;23130;48.760;9.178;2023-02-24T13:36:07;13.20;;;6.28;;
37239;SDS011;23130;48.760;9.178;2023-02-24T13:38:37;13.68;;;6.68;;
37239;SDS011;23130;48.760;9.178;2023-02-24T13:41:34;19.35;;;7.18;;
37239;SDS011;23130;48.760;9.178;2023-02-24T13:44:20;16.63;;;6.28;;
37239;SDS011;23130;48.760;9.178;2023-02-24T13:46:59;13.85;;;6.72;;
37239;SDS011;23130;48.760;9.178;2023-02-24T13:49:42;22.08;;;8.10;;
37239;SDS011;23130;48.760;9.178;2023-02-24T13:55:13;17.65;;;7.68;;
37239;SDS011;23130;48.760;9.178;2023-02-24T14:03:17;20.95;;;6.07;;
37239;SDS011;23130;48.760;9.178;2023-02-24T14:05:45;15.18;;;5.60;;
37239;SDS011;23130;48.760;9.178;2023-02-24T14:08:17;16.45;;;5.28;;
37239;SDS011;23130;48.760;9.178;2023-02-24T14:10:48;15.35;;;4.85;;
37239;SDS011;23130;48.760;9.178;2023-02-24T14:13:26;19.15;;;6.72;;
37239;SDS011;23130;48.760;9.178;2023-02-24T14:15:58;14.98;;;6.55;;
37239;SDS011;23130;48.760;9.178;2023-02-24T14:18:26;20.90;;;7.97;;
37239;SDS011;23130;48.760;9.178;2023-02-24T14:20:54;26.88;;;11.55;;
37239;SDS011;23130;48.760;9.178;2023-02-24T14:23:24;25.60;;;9.68;;
37239;SDS011;23130;48.760;9.178;2023-02-24T14:25:56;22.88;;;9.68;;
37239;SDS011;23130;48.760;9.178;2023-02-24T14:28:26;27.48;;;10.93;;
37239;SDS011;23130;48.760;9.178;2023-02-24T14:30:55;27.13;;;12.13;;
37239;SDS011;23130;48.760;9.178;2023-02-24T14:33:30;27.98;;;11.95;;
37239;SDS011;23130;48.760;9.178;2023-02-24T14:35:58;29.02;;;11.10;;
37239;SDS011;23130;48.760;9.178;2023-02-24T14:40:58;27.55;;;11.18;;
37239;SDS011;23130;48.760;9.178;2023-02-24T14:43:25;24.63;;;11.25;;
37239;SDS011;23130;48.760;9.178;2023-02-24T14:45:51;25.13;;;10.35;;
37239;SDS011;23130;48.760;9.178;2023-02-24T14:48:20;25.30;;;11.93;;
37239;SDS011;23130;48.760;9.178;2023-02-24T14:50:51;20.73;;;10.23;;
37239;SDS011;23130;48.760;9.178;2023-02-24T14:53:33;23.37;;;11.00;;
37239;SDS011;23130;48.760;9.178;2023-02-24T14:56:12;24.92;;;10.43;;
37239;SDS011;23130;48.760;9.178;2023-02-24T14:58:42;19.33;;;7.38;;
37239;SDS011;23130;48.760;9.178;2023-02-24T15:03:59;17.23;;;7.47;;
37239;SDS011;23130;48.760;9.178;2023-02-24T15:06:34;18.35;;;7.47;;
37239;SDS011;23130;48.760;9.178;2023-02-24T15:09:26;14.85;;;6.80;;
37239;SDS011;23130;48.760;9.178;2023-02-24T15:11:52;12.50;;;6.25;;
37239;SDS011;23130;48.760;9.178;2023-02-24T15:16:46;17.02;;;6.97;;
37239;SDS011;23130;48.760;9.178;2023-02-24T15:21:50;13.82;;;5.72;;
37239;SDS011;23130;48.760;9.178;2023-02-24T15:24:17;18.15;;;7.10;;
37239;SDS011;23130;48.760;9.178;2023-02-24T15:26:55;11.65;;;5.50;;
37239;SDS011;23130;48.760;9.178;2023-02-24T15:29:42;21.77;;;8.40;;
37239;SDS011;23130;48.760;9.178;2023-02-24T15:32:18;16.92;;;7.53;;
37239;SDS011;23130;48.760;9.178;2023-02-24T15:34:46;22.83;;;9.65;;
37239;SDS011;23130;48.760;9.178;2023-02-24T15:37:12;24.35;;;10.40;;
37239;SDS011;23130;48.760;9.178;2023-02-24T15:39:40;19.05;;;8.98;;
37239;SDS011;23130;48.760;9.178;2023-02-24T15:44:51;25.02;;;9.55;;
37239;SDS011;23130;48.760;9.178;2023-02-24T15:47:23;19.63;;;9.55;;
37239;SDS011;23130;48.760;9.178;2023-02-24T15:49:50;18.95;;;8.88;;
37239;SDS011;23130;48.760;9.178;2023-02-24T15:52:23;17.90;;;7.40;;
37239;SDS011;23130;48.760;9.178;2023-02-24T15:54:52;19.80;;;7.25;;
37239;SDS011;23130;48.760;9.178;2023-02-24T15:57:23;18.48;;;7.05;;
37239;SDS011;23130;48.760;9.178;2023-02-24T15:59:49;18.92;;;6.22;;
37239;SDS011;23130;48.760;9.178;2023-02-24T16:02:19;19.05;;;6.60;;
37239;SDS011;23130;48.760;9.178;2023-02-24T16:04:45;10.95;;;6.50;;
37239;SDS011;23130;48.760;9.178;2023-02-24T16:07:32;18.05;;;7.30;;
37239;SDS011;23130;48.760;9.178;2023-02-24T16:09:59;18.42;;;7.03;;
37239;SDS011;23130;48.760;9.178;2023-02-24T16:12:27;13.80;;;7.28;;
37239;SDS011;23130;48.760;9.178;2023-02-24T16:14:56;22.73;;;8.40;;
37239;SDS011;23130;48.760;9.178;2023-02-24T16:17:33;17.25;;;8.70;;
37239;SDS011;23130;48.760;9.178;2023-02-24T16:20:03;16.80;;;8.38;;
37239;SDS011;23130;48.760;9.178;2023-02-24T16:22:33;18.30;;;8.45;;
37239;SDS011;23130;48.760;9.178;2023-02-24T16:24:59;19.00;;;8.55;;
37239;SDS011;23130;48.760;9.178;2023-02-24T16:27:25;21.88;;;8.82;;
37239;SDS011;23130;48.760;9.178;2023-02-24T16:29:53;20.13;;;8.90;;
37239;SDS011;23130;48.760;9.178;2023-02-24T16:32:19;22.40;;;10.68;;
37239;SDS011;23130;48.760;9.178;2023-02-24T16:34:47;19.73;;;9.77;;
37239;SDS011;23130;48.760;9.178;2023-02-24T16:37:28;21.98;;;9.77;;
37239;SDS011;23130;48.760;9.178;2023-02-24T16:39:54;20.48;;;9.07;;
37239;SDS011;23130;48.760;9.178;2023-02-24T16:42:22;23.23;;;9.93;;
37239;SDS011;23130;48.760;9.178;2023-02-24T16:44:48;18.48;;;9.73;;
37239;SDS011;23130;48.760;9.178;2023-02-24T16:47:16;27.80;;;11.02;;
37239;SDS011;23130;48.760;9.178;2023-02-24T16:52:12;29.70;;;10.98;;
37239;SDS011;23130;48.760;9.178;2023-02-24T16:54:41;23.55;;;10.73;;
37239;SDS011;23130;48.760;9.178;2023-02-24T16:57:06;21.08;;;9.45;;
37239;SDS011;23130;48.760;9.178;2023-02-24T16:59:32;22.25;;;10.90;;
37239;SDS011;23130;48.760;9.178;2023-02-24T17:01:57;26.45;;;11.60;;